Terminal Aerodrome Forecast
Issued by NWS Pittsburgh, PA

Current Version | Previous Version | Graphics & Text | Print | Product List | Glossary On
Versions: 1 2 3 4 5 6 7 8 9 10 11 12 13 14 15 16 17 18 19 20 21 22 23 24 25 26 27 28 29 30 31 32
000
FTUS41 KPBZ 310800 AAA
TAFPIT
TAF AMD
KPIT 310855Z 3109/0112 VRB03KT P6SM SKC
     FM311700 24006KT P6SM BKN030
     FM312100 26007KT P6SM SCT030 BKN250
     FM010400 22005KT P6SM BKN040
     FM010900 21004KT 5SM -SN OVC020=

USA.gov is the U.S. government's official web portal to all federal, state and local government web resources and services.